createdAt,value
2022-08-19T00:03:42.709Z,34.47
2022-08-19T00:08:44.657Z,34.65
2022-08-19T00:13:49.377Z,35.45
2022-08-19T00:18:51.454Z,34.97
2022-08-19T00:23:54.188Z,35.25
2022-08-19T00:28:56.528Z,34.35
2022-08-19T00:33:58.328Z,39.17
2022-08-19T00:39:00.299Z,36.92
2022-08-19T00:44:06.835Z,39.72
2022-08-19T00:49:16.196Z,36.65
2022-08-19T00:54:28.244Z,40.75
2022-08-19T01:00:00.780Z,39.38
2022-08-19T01:05:09.000Z,39.75
2022-08-19T01:10:16.204Z,40.95
2022-08-19T01:15:22.086Z,42.60
2022-08-19T01:20:25.448Z,46.50
2022-08-19T01:25:42.569Z,48.42
2022-08-19T01:30:50.903Z,46.28
2022-08-19T01:35:53.567Z,48.72
2022-08-19T01:40:56.095Z,49.17
2022-08-19T01:45:57.839Z,51.15
2022-08-19T01:50:59.543Z,54.80
2022-08-19T01:56:02.130Z,56.83
2022-08-19T02:01:05.167Z,52.35
2022-08-19T02:06:07.513Z,55.40
2022-08-19T02:11:09.275Z,60.88
2022-08-19T02:16:10.976Z,56.50
2022-08-19T02:21:13.858Z,53.72
2022-08-19T02:26:18.107Z,61.15
2022-08-19T02:31:22.673Z,62.88
2022-08-19T02:36:28.730Z,61.03
2022-08-19T02:41:33.953Z,59.95
2022-08-19T02:46:36.349Z,60.08
2022-08-19T02:51:45.100Z,55.15
2022-08-19T02:56:47.498Z,52.10
2022-08-19T03:01:49.233Z,48.75
2022-08-19T03:06:51.405Z,49.83
2022-08-19T03:11:53.193Z,48.15
2022-08-19T03:16:54.868Z,47.17
2022-08-19T03:21:56.572Z,42.95
2022-08-19T03:26:59.586Z,40.72
2022-08-19T03:32:04.766Z,35.78
2022-08-19T03:37:13.308Z,36.45
2022-08-19T03:42:38.237Z,33.95
2022-08-19T03:47:38.740Z,32.47
2022-08-19T03:52:40.912Z,30.30
2022-08-19T03:57:49.413Z,28.42
2022-08-19T04:02:58.151Z,28.42
2022-08-19T04:08:02.308Z,26.17
2022-08-19T04:13:06.296Z,26.35
2022-08-19T04:18:11.783Z,31.48
2022-08-19T04:23:14.941Z,36.05
2022-08-19T04:28:16.893Z,37.97
2022-08-19T04:33:23.998Z,43.83
2022-08-19T04:38:28.925Z,40.75
2022-08-19T04:43:31.550Z,37.92
2022-08-19T04:48:33.427Z,37.28
2022-08-19T04:53:38.554Z,39.70
2022-08-19T04:58:45.145Z,42.20
2022-08-19T05:03:46.919Z,39.92
2022-08-19T05:08:49.422Z,37.75
2022-08-19T05:13:51.598Z,42.58
2022-08-19T05:19:12.736Z,45.42
2022-08-19T05:24:15.619Z,48.92
2022-08-19T05:29:20.051Z,50.00
2022-08-19T05:34:26.935Z,47.53
2022-08-19T05:39:30.776Z,53.47
2022-08-19T05:44:34.580Z,46.70
2022-08-19T05:49:37.425Z,49.90
2022-08-19T05:54:43.522Z,51.88
2022-08-19T05:59:47.209Z,49.10
2022-08-19T06:04:49.013Z,47.35
2022-08-19T06:09:58.942Z,47.13
2022-08-19T06:15:12.293Z,45.80
2022-08-19T06:20:15.862Z,50.17
2022-08-19T06:25:18.218Z,43.90
2022-08-19T06:30:19.957Z,46.75
2022-08-19T06:35:21.771Z,44.75
2022-08-19T06:40:23.817Z,49.55
2022-08-19T06:45:35.674Z,52.40
2022-08-19T06:50:41.226Z,51.92
2022-08-19T06:55:42.917Z,49.97
2022-08-19T07:00:45.020Z,53.50
2022-08-19T07:05:47.277Z,51.20
2022-08-19T07:10:50.043Z,49.65
2022-08-19T07:15:51.786Z,49.95
2022-08-19T07:21:05.109Z,47.33
2022-08-19T07:26:15.494Z,45.55
2022-08-19T07:31:23.083Z,44.10
2022-08-19T07:36:33.073Z,51.33
2022-08-19T07:41:37.947Z,50.13
2022-08-19T07:46:42.515Z,45.42
2022-08-19T07:51:45.759Z,44.55
2022-08-19T07:56:47.761Z,39.92
2022-08-19T08:01:51.006Z,39.88
2022-08-19T08:07:12.808Z,39.90
2022-08-19T08:12:35.018Z,40.08
2022-08-19T08:17:49.679Z,41.58
2022-08-19T08:23:11.820Z,41.58
2022-08-19T08:28:17.758Z,40.72
2022-08-19T08:33:33.056Z,40.53
2022-08-19T08:38:41.038Z,39.13
2022-08-19T08:43:47.333Z,38.83
2022-08-19T08:48:58.691Z,37.55
2022-08-19T08:54:05.461Z,36.95
2022-08-19T08:59:23.060Z,37.95
2022-08-19T09:04:25.084Z,37.53
2022-08-19T09:09:36.536Z,37.55
2022-08-19T09:14:51.795Z,38.25
2022-08-19T09:20:05.157Z,34.13
2022-08-19T09:25:09.183Z,30.25
2022-08-19T09:30:16.364Z,36.55
2022-08-19T09:35:18.164Z,35.63
2022-08-19T09:40:21.138Z,35.13
2022-08-19T09:45:26.520Z,36.10
2022-08-19T09:50:28.324Z,38.70
2022-08-19T09:55:31.795Z,35.78
2022-08-19T10:00:34.400Z,35.92
2022-08-19T10:05:54.650Z,31.63
2022-08-19T10:10:58.854Z,32.08
2022-08-19T10:16:07.446Z,30.23
2022-08-19T10:21:15.706Z,31.67
2022-08-19T10:26:23.313Z,27.20
2022-08-19T10:32:02.666Z,25.20
2022-08-19T10:36:56.357Z,23.55
2022-08-19T10:41:58.921Z,23.30
2022-08-19T10:47:00.971Z,21.95
2022-08-19T10:52:23.760Z,20.52
2022-08-19T10:57:52.249Z,20.95
2022-08-19T11:02:56.705Z,25.20
2022-08-19T11:07:58.394Z,20.23
2022-08-19T11:13:03.366Z,18.83
2022-08-19T11:18:05.118Z,20.30
2022-08-19T11:23:15.056Z,21.70
2022-08-19T11:28:16.950Z,18.13
2022-08-19T11:33:18.893Z,19.25
2022-08-19T11:38:20.729Z,15.85
2022-08-19T11:43:22.612Z,15.38
2022-08-19T11:48:26.245Z,14.65
2022-08-19T11:53:27.968Z,13.65
2022-08-19T11:58:32.945Z,16.20
2022-08-19T12:03:35.175Z,17.60
2022-08-19T12:08:37.292Z,16.20
2022-08-19T12:13:39.781Z,16.15
2022-08-19T12:18:44.830Z,14.93
2022-08-19T12:23:47.075Z,16.95
2022-08-19T12:28:49.192Z,16.83
2022-08-19T12:33:51.245Z,15.40
2022-08-19T12:38:53.620Z,16.58
2022-08-19T12:43:55.330Z,16.92
2022-08-19T12:48:57.850Z,13.93
2022-08-19T12:54:00.485Z,16.67
2022-08-19T12:59:04.296Z,15.30
2022-08-19T13:04:06.132Z,12.52
2022-08-19T13:09:07.878Z,16.33
2022-08-19T13:14:09.958Z,14.30
2022-08-19T13:19:12.998Z,16.55
2022-08-19T13:24:14.749Z,15.40
2022-08-19T13:29:35.244Z,18.65
2022-08-19T13:34:37.971Z,16.80
2022-08-19T13:39:39.880Z,14.95
2022-08-19T13:44:41.668Z,16.00
2022-08-19T13:49:43.638Z,17.58
2022-08-19T13:54:45.363Z,14.50
2022-08-19T13:59:47.206Z,14.60
2022-08-19T14:04:48.988Z,13.57
2022-08-19T14:09:51.515Z,14.40
2022-08-19T14:14:53.188Z,16.63
2022-08-19T14:20:04.501Z,13.98
2022-08-19T14:25:16.146Z,16.25
2022-08-19T14:30:23.887Z,15.18
2022-08-19T14:35:27.727Z,13.32
2022-08-19T14:40:30.544Z,13.77
2022-08-19T14:45:36.694Z,13.80
2022-08-19T14:50:38.530Z,11.88
2022-08-19T14:55:45.140Z,11.23
2022-08-19T15:00:46.822Z,10.05
2022-08-19T15:05:50.719Z,12.75
2022-08-19T15:10:53.095Z,11.95
2022-08-19T15:15:55.332Z,10.43
2022-08-19T15:20:57.782Z,10.88
2022-08-19T15:26:20.896Z,11.40
2022-08-19T15:31:28.400Z,16.35
2022-08-19T15:36:30.796Z,20.85
2022-08-19T15:41:32.813Z,17.63
2022-08-19T15:46:37.894Z,19.83
2022-08-19T15:51:42.940Z,20.23
2022-08-19T15:57:03.471Z,19.83
2022-08-19T16:02:23.958Z,18.40
2022-08-19T16:07:34.158Z,17.92
2022-08-19T16:12:35.911Z,18.25
2022-08-19T16:17:38.080Z,16.80
2022-08-19T16:22:40.679Z,18.00
2022-08-19T16:27:45.640Z,20.52
2022-08-19T16:33:04.281Z,23.65
2022-08-19T16:38:07.091Z,19.25
2022-08-19T16:43:10.314Z,16.98
2022-08-19T16:48:12.038Z,18.20
2022-08-19T16:53:15.582Z,17.35
2022-08-19T16:58:20.618Z,15.50
2022-08-19T17:03:36.585Z,13.55
2022-08-19T17:08:38.799Z,17.30
2022-08-19T17:13:40.562Z,14.68
2022-08-19T17:18:45.309Z,17.42
2022-08-19T17:23:47.016Z,15.65
2022-08-19T17:28:51.726Z,14.50
2022-08-19T17:33:55.005Z,17.17
2022-08-19T17:39:00.388Z,17.58
2022-08-19T17:44:03.589Z,18.05
2022-08-19T17:49:05.345Z,14.40
2022-08-19T17:54:08.990Z,17.25
2022-08-19T17:59:14.250Z,31.08
2022-08-19T18:04:17.356Z,15.63
2022-08-19T18:09:19.096Z,17.48
2022-08-19T18:14:32.927Z,20.70
2022-08-19T18:19:41.415Z,21.02
2022-08-19T18:24:45.954Z,16.65
2022-08-19T18:29:47.967Z,17.90
2022-08-19T18:34:49.795Z,14.90
2022-08-19T18:40:10.301Z,16.92
2022-08-19T18:45:31.056Z,14.80
2022-08-19T18:50:32.903Z,13.25
2022-08-19T18:55:34.633Z,14.00
2022-08-19T19:00:36.885Z,16.55
2022-08-19T19:05:40.212Z,16.55
2022-08-19T19:10:42.276Z,15.75
2022-08-19T19:15:44.046Z,14.95
2022-08-19T19:20:45.802Z,25.92
2022-08-19T19:25:50.577Z,16.58
2022-08-19T19:30:58.419Z,16.40
2022-08-19T19:36:00.126Z,16.85
2022-08-19T19:41:02.381Z,15.93
2022-08-19T19:46:04.303Z,17.63
2022-08-19T19:51:09.452Z,16.75
2022-08-19T19:56:12.976Z,17.83
2022-08-19T20:01:21.092Z,20.45
2022-08-19T20:06:29.020Z,18.20
2022-08-19T20:11:36.036Z,22.08
2022-08-19T20:16:40.785Z,18.70
2022-08-19T20:21:50.723Z,17.58
2022-08-19T20:26:53.787Z,19.23
2022-08-19T20:31:59.091Z,17.55
2022-08-19T20:37:01.197Z,18.70
2022-08-19T20:42:03.055Z,21.17
2022-08-19T20:47:04.965Z,19.70
2022-08-19T20:52:06.982Z,19.55
2022-08-19T20:57:08.826Z,23.42
2022-08-19T21:02:11.189Z,23.38
2022-08-19T21:07:12.962Z,21.15
2022-08-19T21:12:15.153Z,23.52
2022-08-19T21:17:16.930Z,21.35
2022-08-19T21:22:18.868Z,25.20
2022-08-19T21:27:24.117Z,25.60
2022-08-19T21:32:26.002Z,20.88
2022-08-19T21:37:28.289Z,22.67
2022-08-19T21:42:30.152Z,22.50
2022-08-19T21:47:31.936Z,23.88
2022-08-19T21:52:34.325Z,22.52
2022-08-19T21:57:36.665Z,21.88
2022-08-19T22:02:39.098Z,21.48
2022-08-19T22:07:42.638Z,23.20
2022-08-19T22:12:47.273Z,24.05
2022-08-19T22:17:54.414Z,24.20
2022-08-19T22:23:02.072Z,22.58
2022-08-19T22:28:07.477Z,24.75
2022-08-19T22:33:17.630Z,23.65
2022-08-19T22:38:19.661Z,22.63
2022-08-19T22:43:24.797Z,23.77
2022-08-19T22:48:29.811Z,22.10
2022-08-19T22:53:33.702Z,23.45
2022-08-19T22:58:35.836Z,23.55
2022-08-19T23:03:37.561Z,22.35
2022-08-19T23:08:39.697Z,20.95
2022-08-19T23:13:42.184Z,25.35
2022-08-19T23:18:45.348Z,24.50
2022-08-19T23:23:47.402Z,26.33
2022-08-19T23:29:07.961Z,24.92
2022-08-19T23:34:09.667Z,26.58
2022-08-19T23:39:11.354Z,26.00
2022-08-19T23:44:14.621Z,27.85
2022-08-19T23:49:16.751Z,30.05
2022-08-19T23:54:18.499Z,27.70
2022-08-19T23:59:20.340Z,27.65
